Etusivu
METAR-TAF:

METAR-TAF

Lentoasemat :

Caracas, Venezuela

Leveyspiiri: 10-36N, Pituuspiiri: 066-59W, korkeus merenpinnasta: 43 m

Tämänhetkinen sää

Tämä raportti tehtiin 51 minuuttia sitten, kello 15.00 UTC
Tuuli 4 kn idästä
Lämpötila 30°C
Kosteus 55%
Ilmanpaine 1012 hPa
Näkyvyys 10 km tai enemmän
Hajanaisia pilviä 1600 ft:n korkeudessa

METAR: SVMI 231500Z 09004KT 9999 SCT016 30/20 Q1012

Aika: 11:51 (15:51 UTC)

Sääennuste

Tämä raportti tehtiin 5 tuntia ja 51 minuuttia sitten, kello 10.00 UTC
Ennuste voimassa 23. päivästä klo 12 UTC - 24. päivään klo 12 UTC
Tuuli 9 kn lännestä/lounaasta
Näkyvyys 10 km tai enemmän
Muutamia pilviä 1600 ft:n korkeudessa
Tulossa
23. päivästä klo 13 UTC - 23. päivään klo 17 UTC
Tuuli 8 kn lännestä/lounaasta
Näkyvyys 10 km tai enemmän
Muutamia pilviä 1600 ft:n korkeudessa

TAF: SVMI 231000Z 2312/2412 24009KT 9999 FEW016 TX33/2318Z TN26/2408Z BECMG 2313/2317 25008KT 9999 FEW016

Säähavainnot ja -ennusteet yli 4000 lentoasemalta (METAR- ja TAF-raportit).

Käytössä olevat sääasemat on merkitty karttaan keltaisilla ja punaisilla pisteillä.

Aseta hiiri pisteen päälle nähdäksesi sääaseman nimen.

Klikkaa sitten nähdäksesi säähavainnot ja -ennusteet.

Kartan vaihtaminen: klikkaa mustalla rastilla varustettuja vihreitä pisteitä, niin voit zoomata sisään; viivalla varustettua vihreää pistettä, niin voit zoomata ulos tai vihreitä nuolia, niin pääset viereisille kartoille.


METAR-TAF: